ENY3398 KDFW-KOKC
Flight info
| Callsign | ENY3398 |
|---|---|
| Flight time | 0h 37m |
| Altitude | 24000 |
| Route | TEX5 ZEMMA TSDEL3 |
| Aircraft | E170/M-SDE3GILORVW/S |
Departure
| Time | 2026-04-10 08:12 |
|---|---|
| Airport | Dallas Fort Worth International Airport (KDFW) |
Arrival
| Time | 2026-04-10 08:49 |
|---|---|
| Airport | OKC Will Rogers World Airport (KOKC) |
| Time | Latitude | Longitude | Altitude | Speed | Heading |
|---|---|---|---|---|---|
| 2026-04-10 07:43 | 32.90682 | -97.04552 | 594 ft | 0 kts | 46° |
| 2026-04-10 07:59 | 32.90681 | -97.04553 | 594 ft | 1 kts | 46° |
| 2026-04-10 07:59 | 32.90669 | -97.04567 | 594 ft | 3 kts | 46° |
| 2026-04-10 07:59 | 32.90656 | -97.04584 | 594 ft | 3 kts | 41° |
| 2026-04-10 08:00 | 32.90639 | -97.04596 | 594 ft | 3 kts | 19° |
| 2026-04-10 08:00 | 32.90620 | -97.04603 | 594 ft | 3 kts | 18° |
| 2026-04-10 08:00 | 32.90609 | -97.04608 | 594 ft | 0 kts | 18° |
| 2026-04-10 08:02 | 32.90614 | -97.04606 | 594 ft | 1 kts | 18° |
| 2026-04-10 08:02 | 32.90632 | -97.04600 | 594 ft | 4 kts | 14° |
| 2026-04-10 08:02 | 32.90646 | -97.04599 | 594 ft | 1 kts | 333° |
| 2026-04-10 08:03 | 32.90650 | -97.04612 | 601 ft | 3 kts | 261° |
| 2026-04-10 08:03 | 32.90643 | -97.04653 | 589 ft | 9 kts | 257° |
| 2026-04-10 08:03 | 32.90624 | -97.04753 | 595 ft | 14 kts | 256° |
| 2026-04-10 08:03 | 32.90601 | -97.04858 | 599 ft | 11 kts | 250° |
| 2026-04-10 08:04 | 32.90557 | -97.04881 | 599 ft | 11 kts | 183° |
| 2026-04-10 08:04 | 32.90435 | -97.04883 | 597 ft | 23 kts | 178° |
| 2026-04-10 08:04 | 32.90269 | -97.04885 | 597 ft | 24 kts | 178° |
| 2026-04-10 08:05 | 32.89926 | -97.04883 | 598 ft | 25 kts | 180° |
| 2026-04-10 08:05 | 32.89748 | -97.04887 | 598 ft | 26 kts | 180° |
| 2026-04-10 08:05 | 32.89560 | -97.04889 | 596 ft | 28 kts | 182° |
| 2026-04-10 08:05 | 32.89366 | -97.04886 | 594 ft | 28 kts | 180° |
| 2026-04-10 08:06 | 32.89162 | -97.04890 | 589 ft | 31 kts | 181° |
| 2026-04-10 08:06 | 32.89043 | -97.05003 | 588 ft | 22 kts | 274° |
| 2026-04-10 08:06 | 32.89041 | -97.05189 | 585 ft | 23 kts | 268° |
| 2026-04-10 08:06 | 32.89042 | -97.05374 | 593 ft | 23 kts | 268° |
| 2026-04-10 08:07 | 32.89045 | -97.05577 | 595 ft | 27 kts | 270° |
| 2026-04-10 08:07 | 32.89044 | -97.05805 | 595 ft | 27 kts | 268° |
| 2026-04-10 08:07 | 32.89104 | -97.05984 | 593 ft | 21 kts | 320° |
| 2026-04-10 08:07 | 32.89214 | -97.06107 | 590 ft | 23 kts | 320° |
| 2026-04-10 08:08 | 32.89343 | -97.06230 | 588 ft | 25 kts | 320° |
| 2026-04-10 08:08 | 32.89466 | -97.06375 | 588 ft | 22 kts | 300° |
| 2026-04-10 08:08 | 32.89509 | -97.06547 | 587 ft | 22 kts | 291° |
| 2026-04-10 08:08 | 32.89585 | -97.06650 | 591 ft | 16 kts | 322° |
| 2026-04-10 08:09 | 32.89681 | -97.06739 | 592 ft | 20 kts | 322° |
| 2026-04-10 08:09 | 32.89795 | -97.06861 | 593 ft | 24 kts | 316° |
| 2026-04-10 08:09 | 32.89923 | -97.07003 | 592 ft | 28 kts | 319° |
| 2026-04-10 08:09 | 32.90081 | -97.07162 | 591 ft | 31 kts | 319° |
| 2026-04-10 08:10 | 32.90246 | -97.07333 | 591 ft | 31 kts | 319° |
| 2026-04-10 08:10 | 32.90409 | -97.07494 | 593 ft | 31 kts | 318° |
| 2026-04-10 08:10 | 32.90564 | -97.07652 | 597 ft | 29 kts | 319° |
| 2026-04-10 08:10 | 32.90718 | -97.07822 | 597 ft | 30 kts | 318° |
| 2026-04-10 08:11 | 32.90883 | -97.07982 | 594 ft | 29 kts | 320° |
| 2026-04-10 08:11 | 32.91017 | -97.08126 | 594 ft | 20 kts | 315° |
| 2026-04-10 08:11 | 32.91000 | -97.08234 | 595 ft | 14 kts | 225° |
| 2026-04-10 08:11 | 32.90945 | -97.08292 | 597 ft | 5 kts | 182° |
| 2026-04-10 08:12 | 32.90913 | -97.08267 | 598 ft | 10 kts | 141° |
| 2026-04-10 08:12 | 32.90698 | -97.08058 | 598 ft | 76 kts | 138° |
| 2026-04-10 08:12 | 32.90118 | -97.07456 | 618 ft | 139 kts | 143° |
| 2026-04-10 08:12 | 32.89360 | -97.06665 | 1226 ft | 153 kts | 141° |
| 2026-04-10 08:13 | 32.88532 | -97.05777 | 2039 ft | 166 kts | 144° |
| 2026-04-10 08:13 | 32.87643 | -97.04790 | 2743 ft | 181 kts | 144° |
| 2026-04-10 08:13 | 32.86663 | -97.03785 | 3434 ft | 192 kts | 147° |
| 2026-04-10 08:13 | 32.85464 | -97.03048 | 4172 ft | 203 kts | 166° |
| 2026-04-10 08:14 | 32.83994 | -97.02889 | 4974 ft | 224 kts | 185° |
| 2026-04-10 08:14 | 32.82437 | -97.03467 | 5673 ft | 248 kts | 208° |
| 2026-04-10 08:14 | 32.81108 | -97.04839 | 6674 ft | 261 kts | 227° |
| 2026-04-10 08:14 | 32.80070 | -97.06664 | 7674 ft | 271 kts | 245° |
| 2026-04-10 08:15 | 32.79754 | -97.08866 | 8731 ft | 278 kts | 272° |
| 2026-04-10 08:15 | 32.80288 | -97.11097 | 9803 ft | 283 kts | 297° |
| 2026-04-10 08:15 | 32.81550 | -97.12885 | 10560 ft | 300 kts | 321° |
| 2026-04-10 08:15 | 32.83532 | -97.13872 | 11158 ft | 321 kts | 350° |
| 2026-04-10 08:16 | 32.85826 | -97.14016 | 11857 ft | 336 kts | 0° |
| 2026-04-10 08:16 | 32.88213 | -97.13964 | 12590 ft | 348 kts | 360° |
| 2026-04-10 08:16 | 32.90642 | -97.13946 | 13498 ft | 356 kts | 359° |
| 2026-04-10 08:16 | 32.93142 | -97.13828 | 14415 ft | 361 kts | 0° |
| 2026-04-10 08:17 | 32.95701 | -97.13892 | 15300 ft | 369 kts | 358° |
| 2026-04-10 08:17 | 32.98260 | -97.13968 | 16266 ft | 375 kts | 358° |
| 2026-04-10 08:17 | 33.00878 | -97.14032 | 17095 ft | 381 kts | 358° |
| 2026-04-10 08:17 | 33.03558 | -97.14075 | 17958 ft | 387 kts | 359° |
| 2026-04-10 08:18 | 33.06276 | -97.14079 | 18764 ft | 390 kts | 0° |
| 2026-04-10 08:18 | 33.08982 | -97.14043 | 19484 ft | 395 kts | 0° |
| 2026-04-10 08:18 | 33.11704 | -97.13970 | 20319 ft | 396 kts | 1° |
| 2026-04-10 08:18 | 33.14475 | -97.13863 | 21119 ft | 399 kts | 1° |
| 2026-04-10 08:19 | 33.17278 | -97.13739 | 21883 ft | 401 kts | 1° |
| 2026-04-10 08:19 | 33.20064 | -97.13585 | 22569 ft | 404 kts | 1° |
| 2026-04-10 08:19 | 33.22868 | -97.13400 | 23214 ft | 408 kts | 2° |
| 2026-04-10 08:19 | 33.25735 | -97.13169 | 23840 ft | 411 kts | 2° |
| 2026-04-10 08:20 | 33.28573 | -97.12909 | 24261 ft | 412 kts | 3° |
| 2026-04-10 08:20 | 33.31420 | -97.12584 | 24171 ft | 408 kts | 4° |
| 2026-04-10 08:20 | 33.34225 | -97.12229 | 24179 ft | 404 kts | 4° |
| 2026-04-10 08:20 | 33.37023 | -97.11873 | 24186 ft | 402 kts | 4° |
| 2026-04-10 08:21 | 33.39795 | -97.11516 | 24174 ft | 402 kts | 4° |
| 2026-04-10 08:21 | 33.42582 | -97.11154 | 24169 ft | 402 kts | 4° |
| 2026-04-10 08:21 | 33.45347 | -97.10791 | 24175 ft | 402 kts | 4° |
| 2026-04-10 08:21 | 33.48140 | -97.10444 | 24182 ft | 401 kts | 4° |
| 2026-04-10 08:22 | 33.50886 | -97.10103 | 24186 ft | 401 kts | 4° |
| 2026-04-10 08:22 | 33.53691 | -97.09755 | 24190 ft | 401 kts | 4° |
| 2026-04-10 08:22 | 33.56446 | -97.09410 | 24199 ft | 401 kts | 4° |
| 2026-04-10 08:22 | 33.59207 | -97.09064 | 24207 ft | 401 kts | 4° |
| 2026-04-10 08:23 | 33.61994 | -97.08715 | 24211 ft | 401 kts | 4° |
| 2026-04-10 08:23 | 33.64742 | -97.08371 | 24221 ft | 401 kts | 4° |
| 2026-04-10 08:23 | 33.67538 | -97.08020 | 24224 ft | 401 kts | 4° |
| 2026-04-10 08:23 | 33.70284 | -97.07673 | 24225 ft | 401 kts | 4° |
| 2026-04-10 08:24 | 33.73069 | -97.07323 | 24220 ft | 401 kts | 4° |
| 2026-04-10 08:24 | 33.75829 | -97.06975 | 24192 ft | 401 kts | 4° |
| 2026-04-10 08:24 | 33.78613 | -97.06623 | 24193 ft | 401 kts | 4° |
| 2026-04-10 08:24 | 33.81370 | -97.06275 | 24165 ft | 401 kts | 4° |
| 2026-04-10 08:25 | 33.84150 | -97.05923 | 24144 ft | 400 kts | 4° |
| 2026-04-10 08:25 | 33.86925 | -97.05573 | 24142 ft | 400 kts | 4° |
| 2026-04-10 08:25 | 33.89704 | -97.05221 | 24145 ft | 400 kts | 4° |
| 2026-04-10 08:25 | 33.92447 | -97.04874 | 24150 ft | 400 kts | 4° |
| 2026-04-10 08:26 | 33.95224 | -97.04522 | 24147 ft | 400 kts | 4° |
| 2026-04-10 08:26 | 33.98005 | -97.04170 | 24150 ft | 400 kts | 4° |
| 2026-04-10 08:26 | 34.00756 | -97.03821 | 24150 ft | 400 kts | 4° |
| 2026-04-10 08:26 | 34.03538 | -97.03467 | 24151 ft | 400 kts | 4° |
| 2026-04-10 08:27 | 34.06277 | -97.03120 | 24153 ft | 400 kts | 4° |
| 2026-04-10 08:27 | 34.09055 | -97.02767 | 24157 ft | 400 kts | 4° |
| 2026-04-10 08:27 | 34.11795 | -97.02418 | 24160 ft | 399 kts | 4° |
| 2026-04-10 08:27 | 34.14567 | -97.02065 | 24159 ft | 399 kts | 4° |
| 2026-04-10 08:28 | 34.17342 | -97.01712 | 24166 ft | 400 kts | 4° |
| 2026-04-10 08:28 | 34.20081 | -97.01363 | 24164 ft | 399 kts | 4° |
| 2026-04-10 08:28 | 34.22861 | -97.01008 | 24167 ft | 400 kts | 4° |
| 2026-04-10 08:28 | 34.25603 | -97.00659 | 24164 ft | 400 kts | 4° |
| 2026-04-10 08:29 | 34.28379 | -97.00304 | 24170 ft | 401 kts | 4° |
| 2026-04-10 08:29 | 34.31176 | -96.99947 | 24167 ft | 402 kts | 4° |
| 2026-04-10 08:29 | 34.33957 | -96.99591 | 24169 ft | 401 kts | 4° |
| 2026-04-10 08:29 | 34.36709 | -96.99324 | 24178 ft | 399 kts | 357° |
| 2026-04-10 08:30 | 34.39447 | -96.99790 | 24165 ft | 395 kts | 340° |
| 2026-04-10 08:30 | 34.41914 | -97.01130 | 24199 ft | 392 kts | 330° |
| 2026-04-10 08:30 | 34.44336 | -97.02690 | 24155 ft | 393 kts | 330° |
| 2026-04-10 08:30 | 34.46760 | -97.04262 | 23819 ft | 394 kts | 329° |
| 2026-04-10 08:31 | 34.49140 | -97.05810 | 23506 ft | 390 kts | 330° |
| 2026-04-10 08:31 | 34.51545 | -97.07374 | 22936 ft | 390 kts | 329° |
| 2026-04-10 08:31 | 34.53931 | -97.08927 | 22415 ft | 387 kts | 330° |
| 2026-04-10 08:31 | 34.56283 | -97.10455 | 21894 ft | 384 kts | 330° |
| 2026-04-10 08:32 | 34.57840 | -97.11464 | 21568 ft | 382 kts | 330° |
| 2026-04-10 08:32 | 34.60187 | -97.12983 | 21063 ft | 379 kts | 330° |
| 2026-04-10 08:32 | 34.63276 | -97.14978 | 20215 ft | 380 kts | 330° |
| 2026-04-10 08:32 | 34.64814 | -97.15974 | 19915 ft | 375 kts | 330° |
| 2026-04-10 08:33 | 34.67122 | -97.17458 | 19415 ft | 371 kts | 330° |
| 2026-04-10 08:33 | 34.69404 | -97.18925 | 18926 ft | 369 kts | 330° |
| 2026-04-10 08:33 | 34.71660 | -97.20373 | 18429 ft | 367 kts | 330° |
| 2026-04-10 08:33 | 34.73896 | -97.21806 | 17949 ft | 364 kts | 330° |
| 2026-04-10 08:34 | 34.76143 | -97.23243 | 17471 ft | 362 kts | 331° |
| 2026-04-10 08:34 | 34.78360 | -97.24640 | 17048 ft | 357 kts | 332° |
| 2026-04-10 08:34 | 34.80493 | -97.26077 | 16635 ft | 351 kts | 327° |
| 2026-04-10 08:34 | 34.82567 | -97.27683 | 16253 ft | 350 kts | 327° |
| 2026-04-10 08:35 | 34.84605 | -97.29236 | 15895 ft | 348 kts | 327° |
| 2026-04-10 08:35 | 34.86647 | -97.30785 | 15515 ft | 338 kts | 328° |
| 2026-04-10 08:35 | 34.88600 | -97.32263 | 15170 ft | 328 kts | 328° |
| 2026-04-10 08:35 | 34.90507 | -97.33705 | 14849 ft | 319 kts | 328° |
| 2026-04-10 08:36 | 34.92372 | -97.35130 | 14520 ft | 312 kts | 328° |
| 2026-04-10 08:36 | 34.94197 | -97.36523 | 14216 ft | 306 kts | 329° |
| 2026-04-10 08:36 | 34.95976 | -97.37880 | 13909 ft | 304 kts | 329° |
| 2026-04-10 08:36 | 34.97777 | -97.39254 | 13603 ft | 304 kts | 329° |
| 2026-04-10 08:37 | 34.99578 | -97.40628 | 13309 ft | 304 kts | 328° |
| 2026-04-10 08:37 | 35.01354 | -97.41983 | 13011 ft | 304 kts | 328° |
| 2026-04-10 08:37 | 35.03149 | -97.43354 | 12710 ft | 303 kts | 328° |
| 2026-04-10 08:37 | 35.04918 | -97.44706 | 12409 ft | 301 kts | 328° |
| 2026-04-10 08:38 | 35.06711 | -97.46044 | 12044 ft | 301 kts | 333° |
| 2026-04-10 08:38 | 35.08710 | -97.46761 | 11703 ft | 298 kts | 354° |
| 2026-04-10 08:38 | 35.10763 | -97.46923 | 11346 ft | 298 kts | 358° |
| 2026-04-10 08:38 | 35.12829 | -97.47035 | 10914 ft | 299 kts | 357° |
| 2026-04-10 08:39 | 35.14918 | -97.47163 | 10506 ft | 297 kts | 357° |
| 2026-04-10 08:39 | 35.16958 | -97.47295 | 10118 ft | 295 kts | 357° |
| 2026-04-10 08:39 | 35.19015 | -97.47432 | 9703 ft | 293 kts | 357° |
| 2026-04-10 08:39 | 35.21049 | -97.47558 | 9338 ft | 291 kts | 356° |
| 2026-04-10 08:40 | 35.23053 | -97.47684 | 8950 ft | 292 kts | 355° |
| 2026-04-10 08:40 | 35.25104 | -97.47815 | 8561 ft | 291 kts | 355° |
| 2026-04-10 08:40 | 35.27093 | -97.47943 | 8184 ft | 288 kts | 355° |
| 2026-04-10 08:40 | 35.29099 | -97.48073 | 7797 ft | 285 kts | 354° |
| 2026-04-10 08:41 | 35.31055 | -97.48199 | 7425 ft | 283 kts | 354° |
| 2026-04-10 08:41 | 35.33023 | -97.48325 | 7048 ft | 281 kts | 354° |
| 2026-04-10 08:41 | 35.34969 | -97.48449 | 6684 ft | 280 kts | 354° |
| 2026-04-10 08:41 | 35.36908 | -97.48575 | 6304 ft | 280 kts | 353° |
| 2026-04-10 08:42 | 35.38826 | -97.48702 | 6111 ft | 271 kts | 353° |
| 2026-04-10 08:42 | 35.40699 | -97.48742 | 5966 ft | 263 kts | 357° |
| 2026-04-10 08:42 | 35.42472 | -97.48719 | 5934 ft | 252 kts | 356° |
| 2026-04-10 08:42 | 35.44229 | -97.48711 | 5829 ft | 252 kts | 356° |
| 2026-04-10 08:43 | 35.45968 | -97.48706 | 5724 ft | 251 kts | 356° |
| 2026-04-10 08:43 | 35.47715 | -97.48735 | 5638 ft | 250 kts | 355° |
| 2026-04-10 08:43 | 35.49458 | -97.48789 | 5524 ft | 251 kts | 350° |
| 2026-04-10 08:43 | 35.51065 | -97.49464 | 5173 ft | 244 kts | 316° |
| 2026-04-10 08:44 | 35.52107 | -97.51004 | 4838 ft | 227 kts | 291° |
| 2026-04-10 08:44 | 35.52882 | -97.52632 | 4489 ft | 220 kts | 292° |
| 2026-04-10 08:44 | 35.53569 | -97.54253 | 4136 ft | 201 kts | 274° |
| 2026-04-10 08:44 | 35.53661 | -97.55843 | 3918 ft | 181 kts | 262° |
| 2026-04-10 08:45 | 35.53730 | -97.57415 | 3545 ft | 177 kts | 263° |
| 2026-04-10 08:45 | 35.53528 | -97.58693 | 3351 ft | 140 kts | 222° |
| 2026-04-10 08:45 | 35.52695 | -97.58922 | 3056 ft | 122 kts | 174° |
| 2026-04-10 08:45 | 35.51912 | -97.58828 | 2987 ft | 114 kts | 198° |
| 2026-04-10 08:46 | 35.51172 | -97.59059 | 2887 ft | 114 kts | 179° |
| 2026-04-10 08:46 | 35.50389 | -97.58912 | 2876 ft | 114 kts | 179° |
| 2026-04-10 08:46 | 35.49600 | -97.58898 | 2861 ft | 112 kts | 184° |
| 2026-04-10 08:46 | 35.48802 | -97.58911 | 2848 ft | 118 kts | 184° |
| 2026-04-10 08:47 | 35.47974 | -97.58899 | 2749 ft | 119 kts | 184° |
| 2026-04-10 08:47 | 35.47149 | -97.58898 | 2618 ft | 118 kts | 184° |
| 2026-04-10 08:47 | 35.46344 | -97.58900 | 2476 ft | 115 kts | 182° |
| 2026-04-10 08:47 | 35.45538 | -97.58899 | 2330 ft | 118 kts | 181° |
| 2026-04-10 08:48 | 35.44710 | -97.58912 | 2163 ft | 121 kts | 180° |
| 2026-04-10 08:48 | 35.43844 | -97.58895 | 1985 ft | 127 kts | 179° |
| 2026-04-10 08:48 | 35.42944 | -97.58838 | 1757 ft | 136 kts | 175° |
| 2026-04-10 08:48 | 35.41974 | -97.58879 | 1649 ft | 143 kts | 185° |
| 2026-04-10 08:49 | 35.41012 | -97.58896 | 1474 ft | 141 kts | 178° |
| 2026-04-10 08:49 | 35.40051 | -97.58896 | 1304 ft | 127 kts | 178° |
| 2026-04-10 08:49 | 35.39310 | -97.58895 | 1293 ft | 82 kts | 180° |
| 2026-04-10 08:49 | 35.38898 | -97.58894 | 1294 ft | 38 kts | 179° |
| 2026-04-10 08:50 | 35.38794 | -97.58940 | 1292 ft | 7 kts | 268° |
| 2026-04-10 08:50 | 35.38800 | -97.59013 | 1291 ft | 11 kts | 275° |
| 2026-04-10 08:50 | 35.38815 | -97.59057 | 1291 ft | 2 kts | 346° |
| 2026-04-10 08:50 | 35.38853 | -97.59059 | 1291 ft | 11 kts | 4° |
| 2026-04-10 08:51 | 35.38943 | -97.59058 | 1293 ft | 14 kts | 358° |
| 2026-04-10 08:51 | 35.39064 | -97.59062 | 1292 ft | 21 kts | 359° |
| 2026-04-10 08:51 | 35.39200 | -97.59081 | 1292 ft | 14 kts | 315° |
| 2026-04-10 08:51 | 35.39216 | -97.59173 | 1293 ft | 11 kts | 271° |
| 2026-04-10 08:52 | 35.39216 | -97.59282 | 1294 ft | 15 kts | 270° |
| 2026-04-10 08:52 | 35.39216 | -97.59429 | 1295 ft | 18 kts | 270° |
| 2026-04-10 08:52 | 35.39264 | -97.59531 | 1296 ft | 14 kts | 358° |
| 2026-04-10 08:52 | 35.39360 | -97.59543 | 1298 ft | 13 kts | 327° |
| 2026-04-10 08:53 | 35.39387 | -97.59653 | 1298 ft | 15 kts | 277° |
| 2026-04-10 08:53 | 35.39405 | -97.59784 | 1296 ft | 16 kts | 271° |
| 2026-04-10 08:53 | 35.39413 | -97.59923 | 1295 ft | 15 kts | 275° |
| 2026-04-10 08:53 | 35.39461 | -97.59980 | 1294 ft | 7 kts | 43° |
| 2026-04-10 08:54 | 35.39479 | -97.59948 | 1294 ft | 2 kts | 56° |
| 2026-04-10 08:54 | 35.39484 | -97.59937 | 1295 ft | 1 kts | 56° |
| 2026-04-10 08:54 | 35.39485 | -97.59936 | 1295 ft | 0 kts | 56° |